Time;durP1;ratioP1;P1;durP2;ratioP2;P2;SDS_P1;SDS_P2;PMS_P1;PMS_P2;Temp;Humidity;BMP_temperature;BMP_pressure;BME280_temperature;BME280_humidity;BME280_pressure;Samples;Min_cycle;Max_cycle;Signal;HPM_P1;HPM_P2
2023/01/26 00:02:18;;;;;;;34.10;15.50;;;;;;;-0.50;100.00;98677.48;108979;1236;59786;-77
2023/01/26 00:04:45;;;;;;;26.40;14.60;;;;;;;-0.47;100.00;98671.47;109509;1231;59739;-77
2023/01/26 00:07:11;;;;;;;34.50;19.90;;;;;;;-0.55;100.00;98671.00;110003;1232;70939;-76
2023/01/26 00:09:38;;;;;;;29.20;15.40;;;;;;;-0.58;100.00;98669.10;109013;1232;59874;-76
2023/01/26 00:12:04;;;;;;;28.80;13.70;;;;;;;-0.60;100.00;98664.19;108854;1232;60690;-76
2023/01/26 00:14:48;;;;;;;28.50;17.30;;;;;;;-0.57;100.00;98659.02;109109;1237;60867;-76
2023/01/26 00:17:24;;;;;;;40.40;26.70;;;;;;;-0.60;100.00;98659.21;109185;1231;74406;-77
2023/01/26 00:19:53;;;;;;;29.60;15.70;;;;;;;-0.61;100.00;98660.09;108794;1239;70939;-78
2023/01/26 00:22:20;;;;;;;29.60;15.70;;;;;;;-0.63;100.00;98657.13;108883;1231;72458;-80
2023/01/26 00:27:34;;;;;;;26.30;15.10;;;;;;;-0.66;100.00;98652.61;109405;1232;934919;-78
2023/01/26 00:30:00;;;;;;;24.10;13.20;;;;;;;-0.66;100.00;98643.77;108864;1237;74356;-77
2023/01/26 00:32:26;;;;;;;27.50;14.70;;;;;;;-0.67;100.00;98640.48;109052;1237;61124;-79
2023/01/26 00:34:54;;;;;;;29.00;15.50;;;;;;;-0.67;100.00;98637.04;109838;1232;61178;-78
2023/01/26 00:37:20;;;;;;;28.50;15.80;;;;;;;-0.66;100.00;98638.52;109789;1235;61235;-79
2023/01/26 00:39:47;;;;;;;26.50;14.10;;;;;;;-0.65;100.00;98637.10;108641;1234;61398;-79
2023/01/26 00:42:14;;;;;;;22.50;12.80;;;;;;;-0.64;100.00;98636.27;108948;1235;61322;-79
2023/01/26 00:44:41;;;;;;;21.90;12.20;;;;;;;-0.64;100.00;98627.48;108877;1236;69635;-77
2023/01/26 00:47:09;;;;;;;27.40;14.00;;;;;;;-0.67;100.00;98622.02;109545;1237;71304;-78
2023/01/26 00:49:35;;;;;;;26.50;15.50;;;;;;;-0.68;100.00;98626.54;108991;1237;61319;-79
2023/01/26 00:52:02;;;;;;;26.00;14.60;;;;;;;-0.66;100.00;98617.96;109009;1236;61961;-79
2023/01/26 00:54:29;;;;;;;30.30;17.70;;;;;;;-0.69;100.00;98612.66;109017;1235;65841;-79
2023/01/26 00:56:56;;;;;;;26.90;15.00;;;;;;;-0.73;100.00;98608.73;110333;1237;69787;-79
2023/01/26 00:59:22;;;;;;;29.50;16.00;;;;;;;-0.73;100.00;98607.51;108799;1237;61140;-79
2023/01/26 01:01:49;;;;;;;39.80;24.10;;;;;;;-0.70;100.00;98601.79;108837;1238;61251;-79
2023/01/26 01:04:15;;;;;;;33.10;18.40;;;;;;;-0.70;100.00;98600.23;108855;1234;61376;-79
2023/01/26 01:06:42;;;;;;;30.70;14.90;;;;;;;-0.70;100.00;98596.51;110361;1234;61305;-78
2023/01/26 01:09:08;;;;;;;32.00;14.00;;;;;;;-0.73;100.00;98593.86;108880;1234;61194;-77
2023/01/26 01:11:35;;;;;;;29.60;15.20;;;;;;;-0.76;100.00;98590.09;108913;1237;64045;-79
2023/01/26 01:14:01;;;;;;;28.60;14.30;;;;;;;-0.75;100.00;98588.08;108831;1234;61251;-78
2023/01/26 01:16:28;;;;;;;31.10;14.30;;;;;;;-0.75;100.00;98582.23;110731;1232;61235;-79
2023/01/26 01:18:54;;;;;;;31.60;16.30;;;;;;;-0.75;100.00;98586.41;108932;1237;61254;-77
2023/01/26 01:21:21;;;;;;;35.10;16.90;;;;;;;-0.72;100.00;98583.35;109006;1236;61985;-77
2023/01/26 01:23:48;;;;;;;30.70;16.40;;;;;;;-0.69;100.00;98582.08;108922;1236;71343;-78
2023/01/26 01:26:15;;;;;;;30.60;15.80;;;;;;;-0.67;100.00;98583.72;110328;1233;59448;-77
2023/01/26 01:28:42;;;;;;;24.80;14.60;;;;;;;-0.68;100.00;98581.70;108605;1240;61266;-78
2023/01/26 01:31:10;;;;;;;26.10;12.20;;;;;;;-0.72;100.00;98581.30;108579;1240;74662;-77
2023/01/26 01:33:36;;;;;;;27.00;13.50;;;;;;;-0.75;100.00;98580.55;108897;1233;70883;-79
2023/01/26 01:36:05;;;;;;;27.30;14.30;;;;;;;-0.79;100.00;98580.36;110358;1236;60120;-79
2023/01/26 01:38:32;;;;;;;26.70;14.30;;;;;;;-0.80;100.00;98576.09;109054;1237;61317;-78
2023/01/26 01:40:58;;;;;;;30.10;14.90;;;;;;;-0.79;100.00;98570.51;109241;1235;61322;-78
2023/01/26 01:43:25;;;;;;;27.20;12.10;;;;;;;-0.78;100.00;98569.98;108826;1237;61218;-78
2023/01/26 01:45:51;;;;;;;34.80;15.20;;;;;;;-0.80;100.00;98568.27;110442;1233;61255;-79
2023/01/26 01:48:27;;;;;;;31.60;13.80;;;;;;;-0.83;100.00;98565.67;108909;1235;71650;-78
2023/01/26 01:50:56;;;;;;;27.60;15.90;;;;;;;-0.85;100.00;98565.89;109203;1232;61302;-77
2023/01/26 01:53:28;;;;;;;21.70;12.90;;;;;;;-0.87;100.00;98567.96;109211;1232;61309;-78
2023/01/26 01:55:57;;;;;;;24.20;12.60;;;;;;;-0.90;100.00;98566.43;110930;1232;73811;-77
2023/01/26 01:58:23;;;;;;;22.30;11.60;;;;;;;-0.90;100.00;98569.14;109118;1236;62557;-78
2023/01/26 02:00:50;;;;;;;21.90;12.00;;;;;;;-0.87;100.00;98571.81;108923;1232;61328;-79
2023/01/26 02:03:20;;;;;;;19.70;11.90;;;;;;;-0.88;100.00;98571.85;108755;1243;61229;-77
2023/01/26 02:06:18;;;;;;;27.10;13.50;;;;;;;-0.89;100.00;98567.41;110489;1232;61136;-77
2023/01/26 02:08:53;;;;;;;21.00;10.40;;;;;;;-0.90;100.00;98564.88;108768;1237;74413;-79
2023/01/26 02:11:24;;;;;;;21.90;11.50;;;;;;;-0.88;100.00;98561.08;108976;1237;70165;-79
2023/01/26 02:13:50;;;;;;;25.50;13.20;;;;;;;-0.87;100.00;98561.25;108802;1232;72430;-78
2023/01/26 02:16:17;;;;;;;25.20;12.40;;;;;;;-0.85;100.00;98557.58;110774;1236;61200;-79
2023/01/26 02:18:44;;;;;;;27.30;13.00;;;;;;;-0.85;100.00;98557.18;109019;1238;61341;-79
2023/01/26 02:21:14;;;;;;;27.90;15.00;;;;;;;-0.83;100.00;98550.69;108853;1232;73572;-78
2023/01/26 02:24:19;;;;;;;26.80;14.80;;;;;;;-0.81;100.00;98544.88;109045;1232;70840;-79
2023/01/26 02:26:46;;;;;;;26.00;12.80;;;;;;;-0.82;100.00;98545.29;109731;1236;71466;-79
2023/01/26 02:29:12;;;;;;;25.00;12.40;;;;;;;-0.88;100.00;98544.23;108862;1235;61321;-79
2023/01/26 02:31:39;;;;;;;28.90;14.80;;;;;;;-0.95;100.00;98539.53;108921;1232;61197;-77
2023/01/26 02:34:05;;;;;;;27.40;13.70;;;;;;;-0.98;100.00;98538.41;108888;1237;66293;-77
2023/01/26 02:36:32;;;;;;;25.00;14.00;;;;;;;-0.97;100.00;98536.13;110089;1232;61219;-77
2023/01/26 02:39:20;;;;;;;24.20;12.60;;;;;;;-0.97;100.00;98531.58;108981;1237;61424;-77
2023/01/26 02:44:39;;;;;;;21.10;12.50;;;;;;;-0.90;100.00;98535.07;108870;1232;61399;-78
2023/01/26 02:47:13;;;;;;;21.80;11.00;;;;;;;-0.86;100.00;98534.60;110065;1232;74452;-77
2023/01/26 02:49:45;;;;;;;23.00;12.00;;;;;;;-0.83;100.00;98538.98;109105;1239;69867;-79
2023/01/26 02:52:16;;;;;;;22.90;11.30;;;;;;;-0.81;100.00;98535.39;108923;1238;71371;-79
2023/01/26 02:57:28;;;;;;;29.80;17.40;;;;;;;-0.81;100.00;98533.09;109445;1238;61153;-78
2023/01/26 02:59:54;;;;;;;28.70;15.20;;;;;;;-0.81;100.00;98534.77;108957;1238;74485;-78
2023/01/26 03:02:21;;;;;;;27.00;13.60;;;;;;;-0.81;100.00;98531.73;108957;1236;61353;-76
2023/01/26 03:04:47;;;;;;;24.40;12.70;;;;;;;-0.82;100.00;98531.23;109024;1237;70778;-77
2023/01/26 03:07:14;;;;;;;31.00;13.40;;;;;;;-0.80;100.00;98530.18;109520;1237;61332;-77
2023/01/26 03:09:41;;;;;;;29.20;14.30;;;;;;;-0.82;100.00;98530.10;108827;1237;61188;-78
2023/01/26 03:12:07;;;;;;;22.20;11.60;;;;;;;-0.89;100.00;98522.15;108907;1232;61321;-78
2023/01/26 03:14:34;;;;;;;25.80;13.50;;;;;;;-0.90;100.00;98523.00;109148;1234;61300;-80
2023/01/26 03:17:00;;;;;;;27.10;13.90;;;;;;;-0.89;100.00;98520.22;109493;1232;61255;-78
2023/01/26 03:27:43;;;;;;;22.70;13.40;;;;;;;-0.88;100.00;98518.22;109433;1237;70951;-79
2023/01/26 03:30:10;;;;;;;28.60;15.40;;;;;;;-0.88;100.00;98514.62;109069;1237;62736;-77
2023/01/26 03:32:37;;;;;;;22.80;12.50;;;;;;;-0.87;100.00;98507.54;109013;1236;61245;-78
2023/01/26 03:35:03;;;;;;;25.20;14.30;;;;;;;-0.87;100.00;98506.80;109534;1232;61133;-79
2023/01/26 03:37:35;;;;;;;26.90;14.60;;;;;;;-0.85;100.00;98503.75;110064;1236;65169;-77
2023/01/26 03:56:34;;;;;;;50.20;33.10;;;;;;;-0.95;100.00;98486.24;110262;1237;62751;-77
2023/01/26 03:59:06;;;;;;;31.30;18.00;;;;;;;-1.00;100.00;98489.17;108955;1232;61082;-78
2023/01/26 04:01:34;;;;;;;24.90;14.00;;;;;;;-1.00;100.00;98488.35;108943;1237;61258;-78
2023/01/26 04:09:32;;;;;;;42.30;25.20;;;;;;;-1.04;100.00;98483.48;108803;1232;71450;-77
2023/01/26 04:11:58;;;;;;;27.00;16.90;;;;;;;-1.07;100.00;98481.17;109170;1237;61155;-78
2023/01/26 04:22:44;;;;;;;28.60;17.10;;;;;;;-1.00;100.00;98474.72;109020;1232;71266;-77
2023/01/26 04:25:16;;;;;;;22.70;11.80;;;;;;;-1.01;100.00;98471.77;109229;1232;59112;-77
2023/01/26 04:27:43;;;;;;;27.80;14.50;;;;;;;-0.98;100.00;98471.05;108888;1233;61332;-78
2023/01/26 04:30:11;;;;;;;25.90;13.70;;;;;;;-0.98;100.00;98467.48;108981;1232;61165;-78
2023/01/26 04:32:37;;;;;;;24.50;12.10;;;;;;;-0.98;100.00;98461.88;109001;1232;71079;-77
2023/01/26 04:35:04;;;;;;;34.10;18.50;;;;;;;-0.99;100.00;98461.30;109761;1236;71839;-77
2023/01/26 04:37:31;;;;;;;22.30;12.30;;;;;;;-0.95;100.00;98462.34;109724;1236;61411;-78
2023/01/26 04:39:57;;;;;;;26.30;12.40;;;;;;;-0.93;100.00;98466.00;108816;1232;61293;-78
2023/01/26 04:42:24;;;;;;;24.80;13.00;;;;;;;-0.95;100.00;98459.48;109078;1237;61212;-78
2023/01/26 04:44:51;;;;;;;30.90;13.50;;;;;;;-0.93;100.00;98457.62;109641;1232;61345;-77
2023/01/26 04:47:18;;;;;;;22.90;11.90;;;;;;;-0.93;100.00;98454.99;110048;1237;63805;-79
2023/01/26 04:49:44;;;;;;;22.60;11.70;;;;;;;-0.93;100.00;98450.20;108846;1232;62242;-77
2023/01/26 04:52:11;;;;;;;23.60;11.80;;;;;;;-0.93;100.00;98444.85;108839;1237;61248;-78
2023/01/26 04:54:38;;;;;;;25.10;13.10;;;;;;;-0.95;100.00;98439.20;109037;1236;74419;-78
2023/01/26 04:57:05;;;;;;;21.70;11.70;;;;;;;-0.94;100.00;98438.77;110149;1232;61191;-78
2023/01/26 04:59:31;;;;;;;26.60;13.70;;;;;;;-0.91;100.00;98438.18;108826;1237;72414;-80
2023/01/26 05:01:57;;;;;;;27.40;14.80;;;;;;;-0.89;100.00;98444.49;109006;1236;61312;-80
2023/01/26 05:04:24;;;;;;;21.90;12.60;;;;;;;-0.92;100.00;98446.77;109174;1237;61289;-80
2023/01/26 05:06:50;;;;;;;26.90;15.70;;;;;;;-0.90;100.00;98442.40;110439;1234;59204;-76
2023/01/26 05:09:16;;;;;;;29.90;16.00;;;;;;;-0.88;100.00;98439.09;109000;1237;61338;-76
2023/01/26 05:11:43;;;;;;;33.00;13.50;;;;;;;-0.89;100.00;98437.20;109256;1237;61827;-77
2023/01/26 05:14:09;;;;;;;25.80;13.90;;;;;;;-0.91;100.00;98436.79;108918;1241;61713;-78
2023/01/26 05:16:36;;;;;;;32.30;16.30;;;;;;;-0.89;100.00;98436.91;109187;1232;59324;-78
2023/01/26 05:19:02;;;;;;;29.30;13.40;;;;;;;-0.88;100.00;98435.11;108914;1237;61389;-78
2023/01/26 05:21:28;;;;;;;26.90;13.60;;;;;;;-0.88;100.00;98431.98;108925;1237;61315;-79
2023/01/26 05:23:55;;;;;;;35.20;20.30;;;;;;;-0.87;100.00;98431.52;108912;1237;61235;-78
2023/01/26 05:26:22;;;;;;;55.90;30.00;;;;;;;-0.87;100.00;98431.56;110389;1232;61720;-77
2023/01/26 05:28:48;;;;;;;39.80;21.10;;;;;;;-0.91;100.00;98429.66;108887;1237;61847;-78
2023/01/26 05:31:15;;;;;;;79.20;33.90;;;;;;;-0.96;100.00;98431.52;108931;1238;62286;-77
2023/01/26 05:33:41;;;;;;;323.40;139.60;;;;;;;-0.92;100.00;98433.42;108727;1237;61341;-78
2023/01/26 05:36:08;;;;;;;120.40;55.10;;;;;;;-0.94;100.00;98433.62;110703;1232;61209;-78
2023/01/26 05:38:35;;;;;;;73.90;33.40;;;;;;;-0.94;100.00;98437.17;108951;1232;61364;-77
2023/01/26 05:41:01;;;;;;;55.30;26.70;;;;;;;-0.93;100.00;98436.66;109046;1237;61286;-79
2023/01/26 05:43:27;;;;;;;38.90;16.90;;;;;;;-0.94;100.00;98434.69;109083;1237;61255;-79
2023/01/26 05:45:54;;;;;;;35.70;16.00;;;;;;;-0.92;100.00;98437.65;110406;1232;62469;-79
2023/01/26 05:48:21;;;;;;;27.80;14.90;;;;;;;-0.93;100.00;98434.00;108935;1232;61412;-79
2023/01/26 05:50:47;;;;;;;31.40;14.40;;;;;;;-0.93;100.00;98440.39;108989;1232;61228;-78
2023/01/26 05:53:14;;;;;;;30.00;16.50;;;;;;;-0.92;100.00;98441.50;108919;1238;61674;-80
2023/01/26 05:55:40;;;;;;;30.20;14.50;;;;;;;-0.92;100.00;98443.13;110577;1232;61251;-78
2023/01/26 05:58:07;;;;;;;30.40;15.30;;;;;;;-0.95;100.00;98445.10;109221;1232;61239;-79
2023/01/26 06:00:33;;;;;;;26.00;14.00;;;;;;;-0.95;100.00;98441.38;109170;1236;61834;-78
2023/01/26 06:02:59;;;;;;;31.90;15.30;;;;;;;-0.95;100.00;98437.81;109021;1232;61270;-78
2023/01/26 06:05:26;;;;;;;26.90;13.40;;;;;;;-0.93;100.00;98436.30;109574;1232;61209;-77
2023/01/26 06:07:52;;;;;;;30.80;14.60;;;;;;;-0.92;100.00;98435.65;109323;1236;61341;-78
2023/01/26 06:10:19;;;;;;;33.30;17.60;;;;;;;-0.92;100.00;98429.42;109182;1236;61312;-77
2023/01/26 06:12:45;;;;;;;33.70;18.90;;;;;;;-0.91;100.00;98429.59;108729;1237;61268;-79
2023/01/26 06:15:11;;;;;;;42.90;19.90;;;;;;;-0.89;100.00;98425.50;109577;1232;61305;-79
2023/01/26 06:17:38;;;;;;;37.00;21.70;;;;;;;-0.85;100.00;98424.54;109236;1236;62387;-77
2023/01/26 06:20:06;;;;;;;29.80;14.40;;;;;;;-0.82;100.00;98428.77;108976;1232;61171;-79
2023/01/26 06:22:32;;;;;;;33.80;15.50;;;;;;;-0.83;100.00;98428.86;109030;1232;61273;-78
2023/01/26 06:24:58;;;;;;;29.30;14.00;;;;;;;-0.85;100.00;98423.30;109439;1232;61121;-79
2023/01/26 06:27:25;;;;;;;33.30;15.90;;;;;;;-0.88;100.00;98425.74;109559;1232;61325;-77
2023/01/26 06:29:51;;;;;;;33.20;15.40;;;;;;;-0.89;100.00;98429.77;109094;1232;61200;-79
2023/01/26 06:32:18;;;;;;;25.80;13.90;;;;;;;-0.90;100.00;98428.44;108954;1232;61232;-79
2023/01/26 06:34:44;;;;;;;26.40;14.20;;;;;;;-0.89;100.00;98426.40;109367;1241;61317;-79
2023/01/26 06:37:12;;;;;;;37.80;17.80;;;;;;;-0.90;100.00;98426.89;109998;1232;61194;-78
2023/01/26 06:39:40;;;;;;;32.70;17.40;;;;;;;-0.87;100.00;98422.80;109152;1236;61181;-79
2023/01/26 06:42:07;;;;;;;32.40;16.40;;;;;;;-0.85;100.00;98417.75;109126;1232;61072;-79
2023/01/26 06:44:33;;;;;;;32.50;17.80;;;;;;;-0.85;100.00;98417.74;109123;1237;73444;-79
2023/01/26 06:47:00;;;;;;;34.00;16.20;;;;;;;-0.82;100.00;98416.77;109981;1232;61264;-79
2023/01/26 06:49:26;;;;;;;38.90;19.20;;;;;;;-0.79;100.00;98419.70;109360;1237;61137;-78
2023/01/26 06:51:56;;;;;;;38.20;20.60;;;;;;;-0.77;100.00;98420.48;109156;1237;61233;-79
2023/01/26 06:54:22;;;;;;;39.20;18.30;;;;;;;-0.76;100.00;98420.73;109060;1237;61344;-77
2023/01/26 06:56:48;;;;;;;30.80;17.00;;;;;;;-0.73;100.00;98418.14;110217;1235;61373;-78
2023/01/26 06:59:15;;;;;;;29.30;15.20;;;;;;;-0.69;100.00;98418.52;108998;1232;61293;-79
2023/01/26 07:01:47;;;;;;;34.00;15.70;;;;;;;-0.67;100.00;98420.42;109329;1237;59236;-79
2023/01/26 07:04:15;;;;;;;28.10;13.20;;;;;;;-0.65;100.00;98421.36;109123;1243;61095;-79
2023/01/26 07:06:42;;;;;;;28.90;13.00;;;;;;;-0.64;100.00;98422.30;110800;1232;61097;-78
2023/01/26 07:09:09;;;;;;;29.00;12.90;;;;;;;-0.62;100.00;98425.54;108713;1237;74216;-77
2023/01/26 07:11:36;;;;;;;24.10;14.30;;;;;;;-0.59;100.00;98424.27;109114;1237;70919;-79
2023/01/26 07:14:02;;;;;;;21.70;12.10;;;;;;;-0.56;100.00;98418.27;108722;1235;71323;-77
2023/01/26 07:16:28;;;;;;;28.00;14.90;;;;;;;-0.54;100.00;98418.53;110714;1232;61287;-79
2023/01/26 07:18:55;;;;;;;44.30;21.30;;;;;;;-0.51;100.00;98417.64;108960;1232;61206;-79
2023/01/26 07:21:22;;;;;;;27.60;15.70;;;;;;;-0.48;100.00;98420.58;109063;1232;73287;-77
2023/01/26 07:23:52;;;;;;;31.10;16.10;;;;;;;-0.49;100.00;98414.52;109040;1232;70880;-77
2023/01/26 07:26:19;;;;;;;45.70;22.70;;;;;;;-0.48;100.00;98415.45;111250;1236;62832;-78
2023/01/26 07:28:46;;;;;;;43.50;20.40;;;;;;;-0.45;100.00;98413.48;109108;1238;61261;-80
2023/01/26 07:31:13;;;;;;;58.10;26.70;;;;;;;-0.49;100.00;98411.80;109577;1232;61293;-77
2023/01/26 07:33:39;;;;;;;41.50;20.70;;;;;;;-0.52;100.00;98412.02;109087;1232;59446;-79
2023/01/26 07:36:06;;;;;;;36.30;20.20;;;;;;;-0.52;100.00;98416.73;109971;1234;61216;-78
2023/01/26 07:38:33;;;;;;;37.30;20.80;;;;;;;-0.56;100.00;98406.16;109138;1237;72821;-79
2023/01/26 07:41:04;;;;;;;39.40;20.50;;;;;;;-0.54;100.00;98404.32;108971;1232;61285;-77
2023/01/26 07:43:32;;;;;;;46.60;25.00;;;;;;;-0.48;100.00;98407.71;108822;1238;61226;-79
2023/01/26 07:45:59;;;;;;;40.20;21.40;;;;;;;-0.43;100.00;98405.59;110517;1231;73256;-77
2023/01/26 07:48:25;;;;;;;38.20;21.50;;;;;;;-0.40;100.00;98407.91;109061;1232;61245;-79
2023/01/26 07:50:51;;;;;;;42.30;22.40;;;;;;;-0.38;100.00;98403.60;108850;1238;61331;-77
2023/01/26 07:53:18;;;;;;;37.00;19.70;;;;;;;-0.33;100.00;98404.04;108920;1232;61340;-79
2023/01/26 07:55:45;;;;;;;35.40;19.30;;;;;;;-0.29;100.00;98401.58;110702;1231;61232;-77
2023/01/26 07:58:11;;;;;;;37.20;18.80;;;;;;;-0.28;100.00;98398.59;112274;1231;73303;-79
2023/01/26 08:00:38;;;;;;;36.60;19.00;;;;;;;-0.28;100.00;98397.92;112250;1231;69646;-78
2023/01/26 08:03:05;;;;;;;36.40;19.40;;;;;;;-0.22;100.00;98398.40;112223;1232;72420;-78
2023/01/26 08:05:31;;;;;;;44.20;21.30;;;;;;;-0.20;100.00;98392.91;112016;1231;59004;-80
2023/01/26 08:07:58;;;;;;;49.40;23.90;;;;;;;-0.21;100.00;98389.23;110025;1231;61408;-80
2023/01/26 08:10:25;;;;;;;72.60;34.60;;;;;;;-0.20;100.00;98392.22;109025;1232;74393;-78
2023/01/26 08:12:52;;;;;;;45.70;23.40;;;;;;;-0.12;100.00;98396.13;109453;1236;69825;-79
2023/01/26 08:15:20;;;;;;;47.80;23.20;;;;;;;-0.06;100.00;98394.52;110054;1231;61123;-79
2023/01/26 08:17:46;;;;;;;35.50;19.90;;;;;;;-0.03;100.00;98389.51;110000;1236;61242;-77
2023/01/26 08:20:13;;;;;;;48.50;24.50;;;;;;;-0.03;100.00;98390.52;109244;1231;61194;-78
2023/01/26 08:22:39;;;;;;;46.20;23.90;;;;;;;-0.02;100.00;98388.73;108928;1234;61308;-79
2023/01/26 08:25:06;;;;;;;32.80;17.30;;;;;;;0.06;100.00;98383.62;109919;1231;61286;-79
2023/01/26 08:27:32;;;;;;;37.60;20.10;;;;;;;0.08;100.00;98382.05;109702;1236;60590;-78
2023/01/26 08:29:58;;;;;;;38.60;19.30;;;;;;;0.08;100.00;98384.84;108957;1236;61318;-79
2023/01/26 08:32:25;;;;;;;40.40;19.50;;;;;;;0.13;100.00;98382.55;108972;1231;61325;-79
2023/01/26 08:34:51;;;;;;;31.30;17.70;;;;;;;0.17;100.00;98388.62;108796;1231;61303;-79
2023/01/26 08:37:18;;;;;;;38.50;19.30;;;;;;;0.20;100.00;98390.89;111960;1231;59131;-78
2023/01/26 08:39:44;;;;;;;39.50;20.80;;;;;;;0.23;100.00;98389.20;109044;1232;61253;-79
2023/01/26 08:42:11;;;;;;;39.80;19.60;;;;;;;0.22;100.00;98390.23;110123;1236;61325;-79
2023/01/26 08:44:37;;;;;;;33.50;17.80;;;;;;;0.19;100.00;98392.08;110310;1231;61216;-78
2023/01/26 08:47:03;;;;;;;43.70;24.90;;;;;;;0.22;100.00;98392.48;110983;1232;59302;-79
2023/01/26 08:49:30;;;;;;;39.20;23.10;;;;;;;0.27;100.00;98394.14;109068;1236;61143;-79
2023/01/26 08:51:56;;;;;;;36.60;19.70;;;;;;;0.32;100.00;98395.59;109086;1231;61312;-79
2023/01/26 08:54:23;;;;;;;36.20;21.60;;;;;;;0.38;100.00;98400.40;109067;1239;61313;-78
2023/01/26 08:56:49;;;;;;;48.50;23.50;;;;;;;0.32;100.00;98402.90;110600;1232;61191;-78
2023/01/26 08:59:15;;;;;;;58.90;30.60;;;;;;;0.33;100.00;98407.04;109207;1231;61316;-78
2023/01/26 09:01:42;;;;;;;63.50;34.30;;;;;;;0.29;100.00;98403.90;108994;1234;150196;-77
2023/01/26 09:04:09;;;;;;;49.80;27.60;;;;;;;0.23;100.00;98403.55;109287;1231;63131;-78
2023/01/26 09:06:35;;;;;;;35.80;17.70;;;;;;;0.20;100.00;98405.31;110229;1237;61338;-78
2023/01/26 09:09:01;;;;;;;49.20;26.70;;;;;;;0.22;100.00;98410.16;109021;1237;62074;-79
2023/01/26 09:11:28;;;;;;;98.70;53.10;;;;;;;0.30;100.00;98409.63;109114;1237;61844;-79
2023/01/26 09:13:55;;;;;;;75.90;40.00;;;;;;;0.37;100.00;98407.91;110388;1231;61344;-80
2023/01/26 09:16:22;;;;;;;53.10;30.10;;;;;;;0.46;100.00;98405.33;111360;1231;61421;-79
2023/01/26 09:18:50;;;;;;;49.70;26.30;;;;;;;0.51;100.00;98404.19;109007;1237;61223;-80
2023/01/26 09:21:16;;;;;;;44.50;24.30;;;;;;;0.53;100.00;98403.98;108662;1233;61290;-78
2023/01/26 09:23:43;;;;;;;38.40;20.40;;;;;;;0.61;100.00;98403.27;108964;1236;74468;-80
2023/01/26 09:26:09;;;;;;;39.40;21.60;;;;;;;0.62;100.00;98404.92;110795;1231;61143;-78
2023/01/26 09:28:36;;;;;;;38.90;21.30;;;;;;;0.67;100.00;98400.39;112253;1231;58973;-79
2023/01/26 09:31:07;;;;;;;35.10;19.80;;;;;;;0.74;100.00;98398.90;112215;1231;59121;-78
2023/01/26 09:33:33;;;;;;;33.80;17.80;;;;;;;0.80;100.00;98396.97;112245;1231;59059;-79
2023/01/26 09:36:05;;;;;;;38.60;19.80;;;;;;;0.81;100.00;98399.63;112155;1232;74410;-78
2023/01/26 09:38:31;;;;;;;40.50;20.40;;;;;;;0.87;100.00;98398.16;112035;1231;69864;-79
2023/01/26 09:41:05;;;;;;;45.30;23.90;;;;;;;0.93;100.00;98397.71;111478;1231;60645;-78
2023/01/26 09:43:41;;;;;;;34.20;21.10;;;;;;;0.92;100.00;98395.54;110414;1235;61322;-79
2023/01/26 09:46:36;;;;;;;32.60;19.30;;;;;;;0.93;100.00;98397.75;110953;1235;60073;-78
2023/01/26 09:49:05;;;;;;;52.30;27.00;;;;;;;0.92;100.00;98389.34;108994;1236;74473;-78
2023/01/26 09:51:43;;;;;;;59.10;28.80;;;;;;;0.99;100.00;98386.29;109125;1232;70940;-77
2023/01/26 09:54:25;;;;;;;52.00;25.40;;;;;;;1.11;100.00;98380.31;109157;1237;71354;-77
2023/01/26 09:56:53;;;;;;;45.10;22.10;;;;;;;1.20;100.00;98375.52;111021;1232;61298;-79
2023/01/26 09:59:30;;;;;;;45.10;20.80;;;;;;;1.27;100.00;98373.08;109122;1237;61283;-78
2023/01/26 10:02:01;;;;;;;34.90;19.20;;;;;;;1.30;100.00;98367.56;108617;1232;73947;-79
2023/01/26 10:04:35;;;;;;;47.90;25.50;;;;;;;1.29;100.00;98362.70;109205;1231;69657;-77
2023/01/26 10:07:08;;;;;;;52.10;24.60;;;;;;;1.30;100.00;98360.37;110856;1232;73243;-79
2023/01/26 10:09:36;;;;;;;42.90;22.60;;;;;;;1.27;100.00;98354.33;109108;1232;62103;-79
2023/01/26 10:12:17;;;;;;;35.40;19.60;;;;;;;1.28;100.00;98353.02;109137;1232;61286;-79
2023/01/26 10:15:33;;;;;;;46.20;24.70;;;;;;;1.34;100.00;98351.96;110037;1231;73344;-79
2023/01/26 10:18:01;;;;;;;56.40;29.30;;;;;;;1.32;100.00;98346.75;109062;1237;69834;-79
2023/01/26 10:20:30;;;;;;;43.90;24.50;;;;;;;1.33;100.00;98342.67;108545;1237;71399;-79
2023/01/26 10:23:17;;;;;;;45.10;24.30;;;;;;;1.36;100.00;98339.09;108660;1237;61307;-79
2023/01/26 10:25:45;;;;;;;43.00;23.60;;;;;;;1.43;100.00;98336.14;110423;1231;59335;-79
2023/01/26 10:28:13;;;;;;;41.30;19.90;;;;;;;1.47;100.00;98335.43;109417;1232;73529;-79
2023/01/26 10:30:40;;;;;;;41.40;20.20;;;;;;;1.40;99.93;98331.35;109034;1238;70967;-77
2023/01/26 10:33:39;;;;;;;49.70;28.30;;;;;;;1.35;100.00;98327.52;109350;1232;72382;-77
2023/01/26 10:36:06;;;;;;;;;;;;;;;1.27;100.00;98330.67;110621;1232;59382;-78
2023/01/26 10:38:32;;;;;;;59.60;31.80;;;;;;;1.25;100.00;98329.49;109370;1237;61226;-79
2023/01/26 10:41:04;;;;;;;43.60;22.50;;;;;;;1.29;100.00;98327.27;109435;1234;61306;-79
2023/01/26 10:43:30;;;;;;;108.90;46.10;;;;;;;1.29;100.00;98323.85;110017;1232;68515;-79
2023/01/26 10:45:58;;;;;;;79.00;39.80;;;;;;;1.25;99.91;98321.53;110689;1231;71113;-78
2023/01/26 10:48:25;;;;;;;70.40;36.60;;;;;;;1.17;99.60;98321.40;111388;1231;61205;-79
2023/01/26 10:50:52;;;;;;;41.70;23.90;;;;;;;1.23;100.00;98322.23;109065;1234;61992;-77
2023/01/26 10:53:23;;;;;;;42.40;22.70;;;;;;;1.29;100.00;98320.65;109390;1231;73263;-78
2023/01/26 10:56:06;;;;;;;39.60;22.30;;;;;;;1.21;99.97;98315.02;110175;1231;69913;-78
2023/01/26 10:58:56;;;;;;;37.90;19.50;;;;;;;1.20;100.00;98314.39;109024;1231;72689;-76
2023/01/26 11:01:26;;;;;;;52.70;29.90;;;;;;;1.11;100.00;98309.10;109467;1237;61243;-77
2023/01/26 11:04:11;;;;;;;49.70;27.70;;;;;;;1.09;100.00;98304.19;108887;1231;61283;-78
2023/01/26 11:06:37;;;;;;;68.50;36.00;;;;;;;1.20;100.00;98301.80;110915;1231;74513;-79
2023/01/26 11:09:08;;;;;;;69.60;33.20;;;;;;;1.22;100.00;98303.25;109360;1231;70039;-79
2023/01/26 11:11:34;;;;;;;51.70;26.10;;;;;;;1.27;100.00;98301.42;109044;1234;72735;-77
2023/01/26 11:14:17;;;;;;;48.90;25.20;;;;;;;1.34;100.00;98297.98;109233;1238;61227;-77
2023/01/26 11:16:55;;;;;;;46.30;23.00;;;;;;;1.45;100.00;98289.55;111292;1237;59121;-77
2023/01/26 11:19:37;;;;;;;48.50;24.40;;;;;;;1.47;99.96;98286.08;109720;1231;74390;-79
2023/01/26 11:22:39;;;;;;;42.60;24.10;;;;;;;1.55;100.00;98284.23;109102;1231;71060;-80
2023/01/26 11:25:17;;;;;;;46.10;22.60;;;;;;;1.65;100.00;98281.98;109575;1232;72494;-78
2023/01/26 11:28:33;;;;;;;53.40;26.60;;;;;;;1.65;100.00;98284.40;109969;1232;61181;-79
2023/01/26 11:31:11;;;;;;;96.20;42.50;;;;;;;1.66;100.00;98280.32;109146;1236;61187;-80
2023/01/26 11:33:59;;;;;;;47.30;20.30;;;;;;;1.61;100.00;98281.27;109008;1238;73366;-77
2023/01/26 11:36:33;;;;;;;39.00;20.40;;;;;;;1.64;100.00;98282.60;110837;1234;69852;-79
2023/01/26 11:39:13;;;;;;;38.40;21.70;;;;;;;1.58;100.00;98288.43;109004;1232;72450;-79
2023/01/26 11:42:10;;;;;;;41.60;22.40;;;;;;;1.52;100.00;98280.17;109075;1231;61647;-79
2023/01/26 11:44:46;;;;;;;40.00;21.60;;;;;;;1.48;100.00;98277.89;109662;1236;61293;-79
2023/01/26 11:47:19;;;;;;;45.40;22.90;;;;;;;1.49;100.00;98270.59;110578;1232;74460;-79
2023/01/26 11:50:04;;;;;;;44.20;24.60;;;;;;;1.43;100.00;98269.50;109353;1236;70060;-79
2023/01/26 11:52:45;;;;;;;38.00;22.10;;;;;;;1.41;100.00;98268.09;109171;1231;71274;-77
2023/01/26 11:55:20;;;;;;;42.20;21.40;;;;;;;1.43;100.00;98260.63;109300;1232;61284;-79
2023/01/26 11:58:06;;;;;;;44.90;24.10;;;;;;;1.45;100.00;98256.42;109367;1232;61133;-79
2023/01/26 12:00:46;;;;;;;47.90;24.20;;;;;;;1.45;100.00;98254.42;109992;1231;73592;-79
2023/01/26 12:03:23;;;;;;;43.90;22.80;;;;;;;1.45;100.00;98250.10;109424;1232;70980;-79